Time,TemperatureF,DewpointF,PressureIn,WindDirection,WindDirectionDegrees,WindSpeedMPH,WindSpeedGustMPH,Humidity,HourlyPrecipIn,Conditions,Clouds,dailyrainin,SoftwareType,DateUTC
2018-02-23 00:36:00,22.0,12.0,-100.00,SSE,149,3.0,7.0,66,-99.99,,,-99.99,,2018-02-23 07:36:00,
2018-02-23 01:35:00,22.0,12.0,-100.00,ESE,103,3.0,7.0,65,-99.99,,,-99.99,,2018-02-23 08:35:00,
2018-02-23 02:35:00,21.0,15.0,-100.00,NNE,25,3.0,5.0,78,-99.99,,,-99.99,,2018-02-23 09:35:00,
2018-02-23 03:36:00,20.0,17.0,-100.00,East,90,3.0,8.0,87,-99.99,,,-99.99,,2018-02-23 10:36:00,
2018-02-23 05:35:00,21.0,10.0,-100.00,SSW,209,5.0,8.0,63,-99.99,,,-99.99,,2018-02-23 12:35:00,
2018-02-23 06:35:00,21.0,10.0,-100.00,SSW,197,5.0,11.0,63,-99.99,,,-99.99,,2018-02-23 13:35:00,
2018-02-23 07:35:00,21.0,9.0,-100.00,South,174,7.0,13.0,60,-99.99,,,-99.99,,2018-02-23 14:35:00,
2018-02-23 08:35:00,23.0,9.0,-100.00,South,177,7.0,15.0,55,-99.99,,,-99.99,,2018-02-23 15:35:00,
2018-02-23 09:36:00,24.0,11.0,-100.00,South,191,11.0,25.0,56,-99.99,,,-99.99,,2018-02-23 16:36:00,
2018-02-23 10:36:00,25.0,12.0,-100.00,South,174,11.0,27.0,56,-99.99,,,-99.99,,2018-02-23 17:36:00,
2018-02-23 11:35:00,27.0,12.0,-100.00,South,187,8.0,21.0,52,-99.99,,,-99.99,,2018-02-23 18:35:00,
2018-02-23 12:35:00,26.0,17.0,-100.00,SW,217,9.0,20.0,68,-99.99,,,-99.99,,2018-02-23 19:35:00,
2018-02-23 13:36:00,27.0,19.0,-100.00,SW,236,9.0,20.0,72,-99.99,,,-99.99,,2018-02-23 20:36:00,
2018-02-23 14:39:00,24.0,19.0,-100.00,West,266,10.0,20.0,80,-99.99,,,-99.99,,2018-02-23 21:39:00,
2018-02-23 15:36:00,22.0,17.0,-100.00,West,270,10.0,22.0,79,-99.99,,,-99.99,,2018-02-23 22:36:00,
2018-02-23 16:35:00,22.0,17.0,-100.00,WSW,253,9.0,21.0,80,-99.99,,,-99.99,,2018-02-23 23:35:00,
2018-02-23 17:36:00,21.0,15.0,-100.00,WSW,243,14.0,25.0,77,-99.99,,,-99.99,,2018-02-24 00:36:00,
2018-02-23 18:35:00,21.0,14.0,-100.00,SW,228,7.0,21.0,74,-99.99,,,-99.99,,2018-02-24 01:35:00,
2018-02-23 19:35:00,21.0,12.0,-100.00,SW,216,7.0,16.0,67,-99.99,,,-99.99,,2018-02-24 02:35:00,
2018-02-23 20:35:00,19.0,12.0,-100.00,NNW,342,4.0,12.0,73,-99.99,,,-99.99,,2018-02-24 03:35:00,
2018-02-23 21:36:00,20.0,14.0,-100.00,West,260,5.0,13.0,77,-99.99,,,-99.99,,2018-02-24 04:36:00,